Terminal Aerodrome Forecast
Issued by NWS Charleston, WV

Current Version | Previous Version | Graphics & Text | Print | Product List | Glossary On
Versions: 1 2 3 4 5 6 7 8 9 10 11 12 13 14 15 16 17 18 19 20 21 22 23 24 25 26 27 28 29
000
FTUS41 KRLX 180902 AAA
TAFEKN
TAF AMD
KEKN 180902Z 1809/1906 27008KT P6SM OVC025
     FM181200 27008KT 6SM -RADZ OVC015
     FM181600 29009G15KT P6SM OVC015
     FM190000 28004KT P6SM BKN015=

USA.gov is the U.S. government's official web portal to all federal, state and local government web resources and services.